createdAt,value
2022-09-15T00:00:22.598Z,93.20
2022-09-15T00:01:24.523Z,93.60
2022-09-15T00:02:26.370Z,93.20
2022-09-15T00:03:28.846Z,93.20
2022-09-15T00:04:30.826Z,93.20
2022-09-15T00:05:32.716Z,93.20
2022-09-15T00:06:35.326Z,93.10
2022-09-15T00:07:37.681Z,93.10
2022-09-15T00:08:39.949Z,93.10
2022-09-15T00:09:41.722Z,93.00
2022-09-15T00:10:56.120Z,93.00
2022-09-15T00:11:57.945Z,92.90
2022-09-15T00:13:00.090Z,93.00
2022-09-15T00:14:04.004Z,93.00
2022-09-15T00:15:06.807Z,93.00
2022-09-15T00:16:12.495Z,93.10
2022-09-15T00:17:16.665Z,93.10
2022-09-15T00:18:18.702Z,93.10
2022-09-15T00:19:20.590Z,93.20
2022-09-15T00:20:22.681Z,93.20
2022-09-15T00:21:31.022Z,93.30
2022-09-15T00:22:32.940Z,93.40
2022-09-15T00:23:35.101Z,93.40
2022-09-15T00:24:37.033Z,93.40
2022-09-15T00:25:47.838Z,93.40
2022-09-15T00:26:49.775Z,93.40
2022-09-15T00:27:51.812Z,93.50
2022-09-15T00:28:54.501Z,93.50
2022-09-15T00:29:56.299Z,93.50
2022-09-15T00:30:58.265Z,93.60
2022-09-15T00:32:00.166Z,93.60
2022-09-15T00:33:02.012Z,93.70
2022-09-15T00:34:05.155Z,93.70
2022-09-15T00:35:07.304Z,93.70
2022-09-15T00:36:11.911Z,93.80
2022-09-15T00:37:13.710Z,93.70
2022-09-15T00:38:16.731Z,93.70
2022-09-15T00:39:18.733Z,93.60
2022-09-15T00:40:20.674Z,93.50
2022-09-15T00:41:24.006Z,93.50
2022-09-15T00:42:26.052Z,93.40
2022-09-15T00:43:57.458Z,93.50
2022-09-15T00:45:02.117Z,93.50
2022-09-15T00:46:03.955Z,93.70
2022-09-15T00:47:19.186Z,93.70
2022-09-15T00:48:23.139Z,93.70
2022-09-15T00:49:29.405Z,93.70
2022-09-15T00:50:32.742Z,93.80
2022-09-15T00:51:42.974Z,93.80
2022-09-15T00:52:56.619Z,93.80
2022-09-15T00:54:01.933Z,93.90
2022-09-15T00:55:14.325Z,93.80
2022-09-15T00:56:18.289Z,93.80
2022-09-15T00:57:31.727Z,93.70
2022-09-15T00:58:47.789Z,93.70
2022-09-15T00:59:50.629Z,93.60
2022-09-15T01:00:59.050Z,93.60
2022-09-15T01:02:15.704Z,93.70
2022-09-15T01:03:18.034Z,93.60
2022-09-15T01:04:19.954Z,93.70
2022-09-15T01:05:29.248Z,93.70
2022-09-15T01:06:38.069Z,93.70
2022-09-15T01:07:52.523Z,93.70
2022-09-15T01:09:18.079Z,93.70
2022-09-15T01:10:26.656Z,93.70
2022-09-15T01:11:29.219Z,93.70
2022-09-15T01:12:31.735Z,93.70
2022-09-15T01:13:33.583Z,93.70
2022-09-15T01:14:35.472Z,93.70
2022-09-15T01:15:49.299Z,93.70
2022-09-15T01:17:00.637Z,93.70
2022-09-15T01:18:07.482Z,94.10
2022-09-15T01:19:37.282Z,93.70
2022-09-15T01:21:06.585Z,93.60
2022-09-15T01:22:24.017Z,93.50
2022-09-15T01:23:53.648Z,93.70
2022-09-15T01:25:09.074Z,93.70
2022-09-15T01:26:27.709Z,93.70
2022-09-15T01:27:49.842Z,93.70
2022-09-15T01:29:16.697Z,93.70
2022-09-15T01:30:23.213Z,93.70
2022-09-15T01:31:36.599Z,93.70
2022-09-15T01:33:09.780Z,93.60
2022-09-15T01:34:20.233Z,93.60
2022-09-15T01:35:44.216Z,93.70
2022-09-15T01:36:57.261Z,94.30
2022-09-15T01:38:20.198Z,93.90
2022-09-15T01:39:28.363Z,93.90
2022-09-15T01:40:37.335Z,94.00
2022-09-15T01:41:47.416Z,93.90
2022-09-15T01:42:51.690Z,94.00
2022-09-15T01:44:14.781Z,94.00
2022-09-15T01:45:24.685Z,93.90
2022-09-15T01:46:29.803Z,93.90
2022-09-15T01:47:32.745Z,93.90
2022-09-15T01:48:36.461Z,93.90
2022-09-15T01:49:51.907Z,93.90
2022-09-15T01:50:57.884Z,93.80
2022-09-15T01:52:00.345Z,93.80
2022-09-15T01:53:05.724Z,93.80
2022-09-15T01:54:08.872Z,93.90
2022-09-15T01:55:18.480Z,93.90
2022-09-15T01:56:20.463Z,94.00
2022-09-15T01:57:22.490Z,94.10
2022-09-15T01:58:24.420Z,94.10
2022-09-15T01:59:26.258Z,94.10
2022-09-15T02:00:30.463Z,94.10
2022-09-15T02:01:47.102Z,94.10
2022-09-15T02:02:58.939Z,94.10
2022-09-15T02:04:18.887Z,94.10
2022-09-15T02:05:40.089Z,94.10
2022-09-15T02:06:52.118Z,94.10
2022-09-15T02:08:19.354Z,94.10
2022-09-15T02:09:28.204Z,94.10
2022-09-15T02:10:44.350Z,94.10
2022-09-15T02:12:12.463Z,94.10
2022-09-15T02:13:20.919Z,94.00
2022-09-15T02:14:48.120Z,94.10
2022-09-15T02:15:56.184Z,94.00
2022-09-15T02:16:58.397Z,94.00
2022-09-15T02:18:02.673Z,94.00
2022-09-15T02:19:32.960Z,94.00
2022-09-15T02:20:38.884Z,94.00
2022-09-15T02:21:40.899Z,93.90
2022-09-15T02:22:57.229Z,93.90
2022-09-15T02:24:05.819Z,93.90
2022-09-15T02:25:22.636Z,94.30
2022-09-15T02:26:27.772Z,93.80
2022-09-15T02:27:34.136Z,93.90
2022-09-15T02:28:40.263Z,93.90
2022-09-15T02:29:45.493Z,93.90
2022-09-15T02:30:48.704Z,93.90
2022-09-15T02:31:53.119Z,94.00
2022-09-15T02:33:07.113Z,94.00
2022-09-15T02:34:16.603Z,93.90
2022-09-15T02:35:18.686Z,93.90
2022-09-15T02:36:22.359Z,93.90
2022-09-15T02:37:25.025Z,94.00
2022-09-15T02:38:32.150Z,94.00
2022-09-15T02:39:40.282Z,94.00
2022-09-15T02:40:43.934Z,94.00
2022-09-15T02:41:46.259Z,94.00
2022-09-15T02:43:01.696Z,94.00
2022-09-15T02:44:03.840Z,93.90
2022-09-15T02:45:06.371Z,93.80
2022-09-15T02:46:08.471Z,93.90
2022-09-15T02:47:10.445Z,93.80
2022-09-15T02:48:13.212Z,93.70
2022-09-15T02:49:15.153Z,93.70
2022-09-15T02:50:18.434Z,93.70
2022-09-15T02:51:20.286Z,93.70
2022-09-15T02:52:22.366Z,93.70
2022-09-15T02:53:24.167Z,93.70
2022-09-15T02:54:26.065Z,93.70
2022-09-15T02:55:29.059Z,93.70
2022-09-15T02:56:30.870Z,93.70
2022-09-15T02:57:32.613Z,93.70
2022-09-15T02:58:35.046Z,93.70
2022-09-15T02:59:55.462Z,93.60
2022-09-15T03:00:58.516Z,93.60
2022-09-15T03:02:00.396Z,93.60
2022-09-15T03:03:02.281Z,93.60
2022-09-15T03:04:05.252Z,93.50
2022-09-15T03:05:09.200Z,93.60
2022-09-15T03:06:19.660Z,93.60
2022-09-15T03:07:21.830Z,93.60
2022-09-15T03:08:23.680Z,93.50
2022-09-15T03:09:25.508Z,93.60
2022-09-15T03:10:27.352Z,93.50
2022-09-15T03:11:30.746Z,93.60
2022-09-15T03:12:38.228Z,93.60
2022-09-15T03:13:40.095Z,93.60
2022-09-15T03:14:42.545Z,93.60
2022-09-15T03:15:44.425Z,93.60
2022-09-15T03:16:46.300Z,93.60
2022-09-15T03:17:48.578Z,93.70
2022-09-15T03:18:50.658Z,93.70
2022-09-15T03:19:52.580Z,93.70
2022-09-15T03:20:56.859Z,93.70
2022-09-15T03:21:58.795Z,93.90
2022-09-15T03:23:00.627Z,93.90
2022-09-15T03:24:02.472Z,93.90
2022-09-15T03:25:05.631Z,93.90
2022-09-15T03:26:09.065Z,93.90
2022-09-15T03:27:11.047Z,93.90
2022-09-15T03:28:12.803Z,93.90
2022-09-15T03:29:14.962Z,93.90
2022-09-15T03:30:16.846Z,93.90
2022-09-15T03:31:19.594Z,93.90
2022-09-15T03:32:21.430Z,93.80
2022-09-15T03:33:24.430Z,93.80
2022-09-15T03:34:26.223Z,93.80
2022-09-15T03:35:28.098Z,93.70
2022-09-15T03:36:30.187Z,93.70
2022-09-15T03:37:32.413Z,93.80
2022-09-15T03:38:35.195Z,93.90
2022-09-15T03:39:37.458Z,93.90
2022-09-15T03:40:39.232Z,93.90
2022-09-15T03:41:41.132Z,93.90
2022-09-15T03:42:42.942Z,93.90
2022-09-15T03:43:44.905Z,93.90
2022-09-15T03:44:46.749Z,93.90
2022-09-15T03:45:48.954Z,94.40
2022-09-15T03:46:51.272Z,93.90
2022-09-15T03:47:53.147Z,94.40
2022-09-15T03:48:55.164Z,93.80
2022-09-15T03:49:57.109Z,93.80
2022-09-15T03:50:59.243Z,93.80
2022-09-15T03:52:01.117Z,93.80
2022-09-15T03:53:02.982Z,93.80
2022-09-15T03:54:04.998Z,93.80
2022-09-15T03:55:07.206Z,93.80
2022-09-15T03:56:12.224Z,93.80
2022-09-15T03:57:14.006Z,93.70
2022-09-15T03:58:17.479Z,93.70
2022-09-15T03:59:20.750Z,93.70
2022-09-15T04:00:22.943Z,93.60
2022-09-15T04:01:24.891Z,94.00
2022-09-15T04:02:27.292Z,93.60
2022-09-15T04:03:29.583Z,93.80
2022-09-15T04:04:32.078Z,93.80
2022-09-15T04:05:34.871Z,93.70
2022-09-15T04:06:37.973Z,93.70
2022-09-15T04:07:41.367Z,93.70
2022-09-15T04:08:43.510Z,93.70
2022-09-15T04:09:46.038Z,93.80
2022-09-15T04:10:48.258Z,93.80
2022-09-15T04:11:50.102Z,93.80
2022-09-15T04:12:52.559Z,93.80
2022-09-15T04:13:54.888Z,93.80
2022-09-15T04:14:56.633Z,93.80
2022-09-15T04:16:06.729Z,93.80
2022-09-15T04:17:12.490Z,93.70
2022-09-15T04:18:14.276Z,93.70
2022-09-15T04:19:16.168Z,93.80
2022-09-15T04:20:18.119Z,93.90
2022-09-15T04:21:22.881Z,93.90
2022-09-15T04:22:24.681Z,93.90
2022-09-15T04:23:26.665Z,93.90
2022-09-15T04:24:28.517Z,93.80
2022-09-15T04:25:30.513Z,93.80
2022-09-15T04:26:34.912Z,93.80
2022-09-15T04:27:38.546Z,93.80
2022-09-15T04:28:40.758Z,93.80
2022-09-15T04:29:43.548Z,93.80
2022-09-15T04:30:45.333Z,93.80
2022-09-15T04:31:47.293Z,93.80
2022-09-15T04:32:50.073Z,93.80
2022-09-15T04:33:54.012Z,93.70
2022-09-15T04:34:56.240Z,93.70
2022-09-15T04:36:02.535Z,93.70
2022-09-15T04:37:04.348Z,93.70
2022-09-15T04:38:06.323Z,93.80
2022-09-15T04:39:08.130Z,93.80
2022-09-15T04:40:10.411Z,93.80
2022-09-15T04:41:12.743Z,93.80
2022-09-15T04:42:16.555Z,93.80
2022-09-15T04:43:18.362Z,93.80
2022-09-15T04:44:20.500Z,93.80
2022-09-15T04:45:22.271Z,93.80
2022-09-15T04:46:25.610Z,93.80
2022-09-15T04:47:27.695Z,93.70
2022-09-15T04:48:31.151Z,93.70
2022-09-15T04:49:33.584Z,93.70
2022-09-15T04:50:35.397Z,93.70
2022-09-15T04:51:37.867Z,94.10
2022-09-15T04:52:40.190Z,93.60
2022-09-15T04:53:42.483Z,93.60
2022-09-15T04:54:44.322Z,93.50
2022-09-15T04:55:46.180Z,93.50
2022-09-15T04:56:48.939Z,93.50
2022-09-15T04:57:50.979Z,93.50
2022-09-15T04:59:03.541Z,93.50
2022-09-15T05:00:07.432Z,93.60
2022-09-15T05:01:15.120Z,93.50
2022-09-15T05:02:17.146Z,93.60
2022-09-15T05:03:19.156Z,93.60
2022-09-15T05:04:21.224Z,93.70
2022-09-15T05:05:23.288Z,93.60
2022-09-15T05:06:27.162Z,93.60
2022-09-15T05:07:28.966Z,93.50
2022-09-15T05:08:30.815Z,93.50
2022-09-15T05:09:32.808Z,93.50
2022-09-15T05:10:35.062Z,93.40
2022-09-15T05:11:37.252Z,93.50
2022-09-15T05:12:39.077Z,93.50
2022-09-15T05:13:41.842Z,93.60
2022-09-15T05:14:43.595Z,93.70
2022-09-15T05:15:45.449Z,93.70
2022-09-15T05:16:47.481Z,93.80
2022-09-15T05:17:50.121Z,93.80
2022-09-15T05:18:54.086Z,93.70
2022-09-15T05:19:55.915Z,93.60
2022-09-15T05:21:03.127Z,93.60
2022-09-15T05:22:04.869Z,93.60
2022-09-15T05:23:06.790Z,93.50
2022-09-15T05:24:09.007Z,93.50
2022-09-15T05:25:10.923Z,93.50
2022-09-15T05:26:16.622Z,93.40
2022-09-15T05:27:18.421Z,93.40
2022-09-15T05:28:20.587Z,93.40
2022-09-15T05:29:22.572Z,93.40
2022-09-15T05:30:37.710Z,93.30
2022-09-15T05:31:41.682Z,93.20
2022-09-15T05:32:44.600Z,93.20
2022-09-15T05:33:48.010Z,93.10
2022-09-15T05:34:50.280Z,93.00
2022-09-15T05:35:54.353Z,92.90
2022-09-15T05:36:57.285Z,92.80
2022-09-15T05:37:59.053Z,92.80
2022-09-15T05:39:02.368Z,92.80
2022-09-15T05:40:08.497Z,92.80
2022-09-15T05:41:12.255Z,92.80
2022-09-15T05:42:14.096Z,92.70
2022-09-15T05:43:17.579Z,92.70
2022-09-15T05:44:21.532Z,92.70
2022-09-15T05:45:23.814Z,92.70
2022-09-15T05:46:26.865Z,92.80
2022-09-15T05:47:28.647Z,92.70
2022-09-15T05:48:30.922Z,92.60
2022-09-15T05:49:32.961Z,92.50
2022-09-15T05:50:34.726Z,92.50
2022-09-15T05:51:36.677Z,92.50
2022-09-15T05:52:38.484Z,92.50
2022-09-15T05:53:40.982Z,92.50
2022-09-15T05:54:42.784Z,92.50
2022-09-15T05:55:44.854Z,92.60
2022-09-15T05:56:46.680Z,92.70
2022-09-15T05:57:48.546Z,92.50
2022-09-15T05:58:50.358Z,92.50
2022-09-15T05:59:52.389Z,92.40
2022-09-15T06:00:54.745Z,92.40
2022-09-15T06:01:56.673Z,92.40
2022-09-15T06:02:58.677Z,92.40
2022-09-15T06:04:00.944Z,92.30
2022-09-15T06:05:03.494Z,92.30
2022-09-15T06:06:06.467Z,92.40
2022-09-15T06:07:08.355Z,92.90
2022-09-15T06:08:10.678Z,92.20
2022-09-15T06:09:12.527Z,92.30
2022-09-15T06:10:14.287Z,92.20
2022-09-15T06:11:20.754Z,92.30
2022-09-15T06:12:22.859Z,92.40
2022-09-15T06:13:24.829Z,92.50
2022-09-15T06:14:26.892Z,92.40
2022-09-15T06:15:28.867Z,92.50
2022-09-15T06:16:35.454Z,92.40
2022-09-15T06:17:37.349Z,92.40
2022-09-15T06:18:40.975Z,92.30
2022-09-15T06:19:42.828Z,92.30
2022-09-15T06:20:44.588Z,92.20
2022-09-15T06:21:46.329Z,92.10
2022-09-15T06:22:48.231Z,92.10
2022-09-15T06:23:57.592Z,92.00
2022-09-15T06:24:59.939Z,92.00
2022-09-15T06:26:12.654Z,91.90
2022-09-15T06:27:14.413Z,91.90
2022-09-15T06:28:16.153Z,91.80
2022-09-15T06:29:18.117Z,91.80
2022-09-15T06:30:20.285Z,92.20
2022-09-15T06:31:23.257Z,91.70
2022-09-15T06:32:25.908Z,91.60
2022-09-15T06:33:27.654Z,91.60
2022-09-15T06:34:29.855Z,91.60
2022-09-15T06:35:32.115Z,91.60
2022-09-15T06:36:36.200Z,91.60
2022-09-15T06:37:38.168Z,91.50
2022-09-15T06:38:40.470Z,91.40
2022-09-15T06:39:43.350Z,91.40
2022-09-15T06:40:45.392Z,91.40
2022-09-15T06:42:01.800Z,91.50
2022-09-15T06:43:05.217Z,91.40
2022-09-15T06:44:06.952Z,91.30
2022-09-15T06:45:09.049Z,91.30
2022-09-15T06:46:16.497Z,91.30
2022-09-15T06:47:18.531Z,91.40
2022-09-15T06:48:24.868Z,91.40
2022-09-15T06:49:27.144Z,91.40
2022-09-15T06:50:29.724Z,91.50
2022-09-15T06:51:35.453Z,91.50
2022-09-15T06:52:37.357Z,91.50
2022-09-15T06:53:39.769Z,91.70
2022-09-15T06:54:41.733Z,91.70
2022-09-15T06:55:43.589Z,92.30
2022-09-15T06:56:45.350Z,91.80
2022-09-15T06:57:47.177Z,91.80
2022-09-15T06:58:49.954Z,91.80
2022-09-15T06:59:51.739Z,91.90
2022-09-15T07:00:53.689Z,91.80
2022-09-15T07:01:55.732Z,91.80
2022-09-15T07:02:57.691Z,91.80
2022-09-15T07:04:01.858Z,91.70
2022-09-15T07:05:03.939Z,91.60
2022-09-15T07:06:07.940Z,91.60
2022-09-15T07:07:11.663Z,91.60
2022-09-15T07:08:14.548Z,91.60
2022-09-15T07:09:16.703Z,91.70
2022-09-15T07:10:18.590Z,91.70
2022-09-15T07:11:21.143Z,91.80
2022-09-15T07:12:22.898Z,91.80
2022-09-15T07:13:25.164Z,91.60
2022-09-15T07:14:26.989Z,91.50
2022-09-15T07:15:29.338Z,91.50
2022-09-15T07:16:31.333Z,91.40
2022-09-15T07:17:33.244Z,91.40
2022-09-15T07:18:39.722Z,91.30
2022-09-15T07:19:45.423Z,91.30
2022-09-15T07:20:47.166Z,91.30
2022-09-15T07:21:50.378Z,91.30
2022-09-15T07:22:52.240Z,91.30
2022-09-15T07:23:57.329Z,91.30
2022-09-15T07:24:59.260Z,91.30
2022-09-15T07:26:14.641Z,90.90
2022-09-15T07:27:16.716Z,90.50
2022-09-15T07:28:19.376Z,90.30
2022-09-15T07:29:21.126Z,90.10
2022-09-15T07:30:23.086Z,90.40
2022-09-15T07:31:26.892Z,90.40
2022-09-15T07:32:31.008Z,90.40
2022-09-15T07:33:34.062Z,90.40
2022-09-15T07:34:35.881Z,90.20
2022-09-15T07:35:44.273Z,89.80
2022-09-15T07:36:46.257Z,89.90
2022-09-15T07:37:48.811Z,90.10
2022-09-15T07:38:50.971Z,89.50
2022-09-15T07:39:53.042Z,90.00
2022-09-15T07:40:54.947Z,88.80
2022-09-15T07:41:56.857Z,89.50
2022-09-15T07:42:58.741Z,90.00
2022-09-15T07:44:01.765Z,90.00
2022-09-15T07:45:03.962Z,89.20
2022-09-15T07:46:06.855Z,89.60
2022-09-15T07:47:08.819Z,89.80
2022-09-15T07:48:10.682Z,89.70
2022-09-15T07:49:12.589Z,89.40
2022-09-15T07:50:14.880Z,88.90
2022-09-15T07:51:18.166Z,88.60
2022-09-15T07:52:20.092Z,88.30
2022-09-15T07:53:22.926Z,88.20
2022-09-15T07:54:24.946Z,87.70
2022-09-15T07:55:26.885Z,87.30
2022-09-15T07:56:28.981Z,86.90
2022-09-15T07:57:30.827Z,86.50
2022-09-15T07:58:33.709Z,86.10
2022-09-15T07:59:39.345Z,86.00
2022-09-15T08:00:45.146Z,84.20
2022-09-15T08:01:47.357Z,83.40
2022-09-15T08:02:49.290Z,84.20
2022-09-15T08:03:52.241Z,84.50
2022-09-15T08:04:54.392Z,85.10
2022-09-15T08:06:00.513Z,84.10
2022-09-15T08:07:02.721Z,84.30
2022-09-15T08:08:06.211Z,84.70
2022-09-15T08:09:14.544Z,84.80
2022-09-15T08:10:18.229Z,84.90
2022-09-15T08:11:23.990Z,85.10
2022-09-15T08:12:26.722Z,85.00
2022-09-15T08:13:29.614Z,84.80
2022-09-15T08:14:33.265Z,84.50
2022-09-15T08:15:37.824Z,84.60
2022-09-15T08:16:40.384Z,82.70
2022-09-15T08:17:42.836Z,83.10
2022-09-15T08:18:45.734Z,83.30
2022-09-15T08:19:49.282Z,82.70
2022-09-15T08:20:52.099Z,82.70
2022-09-15T08:21:59.040Z,83.00
2022-09-15T08:23:00.924Z,82.70
2022-09-15T08:24:03.102Z,83.10
2022-09-15T08:25:05.702Z,82.10
2022-09-15T08:26:13.900Z,82.70
2022-09-15T08:27:16.534Z,82.80
2022-09-15T08:28:18.505Z,83.30
2022-09-15T08:29:22.781Z,83.90
2022-09-15T08:30:27.524Z,84.00
2022-09-15T08:31:31.086Z,84.10
2022-09-15T08:32:34.565Z,84.10
2022-09-15T08:33:38.230Z,83.60
2022-09-15T08:34:45.702Z,83.40
2022-09-15T08:35:47.992Z,83.30
2022-09-15T08:36:51.289Z,82.90
2022-09-15T08:37:57.863Z,81.50
2022-09-15T08:39:03.968Z,80.70
2022-09-15T08:40:07.102Z,81.70
2022-09-15T08:41:48.494Z,82.60
2022-09-15T08:42:57.702Z,82.20
2022-09-15T08:44:39.855Z,81.90
2022-09-15T08:45:55.308Z,81.10
2022-09-15T08:47:15.510Z,82.10
2022-09-15T08:48:24.809Z,81.50
2022-09-15T08:49:50.495Z,80.30
2022-09-15T08:50:57.729Z,80.50
2022-09-15T08:52:07.155Z,80.30
2022-09-15T08:53:14.592Z,80.80
2022-09-15T08:54:26.111Z,79.60
2022-09-15T08:55:38.600Z,80.30
2022-09-15T08:56:43.263Z,78.30
2022-09-15T08:57:49.550Z,77.50
2022-09-15T08:58:51.460Z,77.80
2022-09-15T08:59:55.012Z,78.80
2022-09-15T09:01:11.558Z,78.90
2022-09-15T09:02:27.505Z,79.00
2022-09-15T09:03:42.969Z,80.50
2022-09-15T09:04:53.990Z,80.20
2022-09-15T09:06:03.377Z,79.30
2022-09-15T09:07:39.943Z,79.50
2022-09-15T09:08:55.495Z,79.60
2022-09-15T09:10:33.309Z,78.40
2022-09-15T09:11:59.528Z,78.50
2022-09-15T09:13:35.241Z,79.20
2022-09-15T09:14:49.519Z,79.40
2022-09-15T09:16:16.407Z,81.20
2022-09-15T09:17:51.050Z,80.60
2022-09-15T09:19:04.483Z,81.40
2022-09-15T09:20:28.070Z,81.60
2022-09-15T09:21:35.542Z,81.50
2022-09-15T09:22:41.431Z,81.80
2022-09-15T09:23:53.185Z,82.70
2022-09-15T09:25:11.547Z,82.80
2022-09-15T09:26:19.504Z,82.60
2022-09-15T09:27:29.132Z,83.80
2022-09-15T09:28:40.045Z,84.00
2022-09-15T09:30:00.543Z,84.20
2022-09-15T09:31:09.245Z,84.20
2022-09-15T09:32:21.838Z,83.60
2022-09-15T09:33:41.840Z,82.70
2022-09-15T09:35:09.282Z,82.80
2022-09-15T09:36:13.690Z,82.40
2022-09-15T09:37:18.553Z,81.70
2022-09-15T09:38:26.572Z,80.60
2022-09-15T09:39:29.004Z,80.40
2022-09-15T09:40:32.927Z,81.50
2022-09-15T09:41:40.864Z,82.20
2022-09-15T09:42:46.025Z,80.00
2022-09-15T09:43:49.711Z,76.90
2022-09-15T09:44:53.385Z,74.20
2022-09-15T09:45:56.786Z,72.40
2022-09-15T09:47:00.902Z,69.80
2022-09-15T09:48:12.018Z,68.70
2022-09-15T09:49:25.045Z,68.10
2022-09-15T09:50:45.576Z,66.90
2022-09-15T09:51:56.100Z,67.40
2022-09-15T09:53:01.449Z,67.90
2022-09-15T09:54:18.078Z,67.40
2022-09-15T09:55:20.255Z,69.00
2022-09-15T09:56:32.380Z,69.10
2022-09-15T09:57:40.510Z,69.20
2022-09-15T09:58:43.448Z,70.30
2022-09-15T09:59:47.653Z,71.10
2022-09-15T10:00:55.193Z,71.40
2022-09-15T10:02:13.994Z,71.20
2022-09-15T10:03:29.316Z,72.10
2022-09-15T10:04:35.337Z,72.40
2022-09-15T10:05:37.288Z,72.20
2022-09-15T10:06:40.266Z,72.40
2022-09-15T10:07:46.230Z,72.50
2022-09-15T10:09:09.061Z,73.00
2022-09-15T10:10:21.605Z,73.10
2022-09-15T10:11:44.511Z,72.30
2022-09-15T10:12:47.805Z,72.90
2022-09-15T10:13:56.766Z,72.20
2022-09-15T10:15:02.667Z,72.70
2022-09-15T10:16:06.876Z,72.80
2022-09-15T10:17:42.319Z,73.10
2022-09-15T10:18:44.434Z,74.10
2022-09-15T10:19:58.393Z,72.70
2022-09-15T10:21:01.968Z,70.20
2022-09-15T10:22:04.675Z,69.10
2022-09-15T10:23:18.081Z,69.80
2022-09-15T10:24:40.160Z,70.50
2022-09-15T10:25:58.500Z,71.20
2022-09-15T10:27:28.650Z,68.90
2022-09-15T10:28:30.513Z,69.70
2022-09-15T10:29:38.988Z,69.20
2022-09-15T10:30:57.686Z,68.90
2022-09-15T10:32:36.066Z,69.80
2022-09-15T10:33:41.804Z,68.90
2022-09-15T10:34:44.236Z,69.50
2022-09-15T10:35:46.677Z,69.40
2022-09-15T10:36:48.636Z,68.70
2022-09-15T10:38:11.223Z,67.40
2022-09-15T10:39:44.077Z,66.70
2022-09-15T10:40:56.268Z,68.20
2022-09-15T10:42:07.188Z,67.90
2022-09-15T10:43:36.436Z,67.80
2022-09-15T10:45:09.436Z,68.70
2022-09-15T10:46:25.191Z,68.00
2022-09-15T10:47:35.984Z,66.50
2022-09-15T10:48:46.623Z,65.50
2022-09-15T10:50:16.312Z,64.50
2022-09-15T10:51:28.348Z,61.90
2022-09-15T10:53:06.250Z,61.50
2022-09-15T10:54:10.668Z,60.60
2022-09-15T10:55:52.983Z,59.30
2022-09-15T10:57:22.098Z,57.80
2022-09-15T10:58:30.244Z,59.40
2022-09-15T10:59:49.151Z,57.90
2022-09-15T11:01:30.105Z,55.60
2022-09-15T11:02:40.556Z,55.40
2022-09-15T11:03:48.511Z,56.90
2022-09-15T11:05:04.642Z,57.70
2022-09-15T11:06:15.924Z,58.70
2022-09-15T11:07:54.162Z,58.40
2022-09-15T11:09:09.332Z,58.50
2022-09-15T11:10:36.778Z,58.00
2022-09-15T11:12:06.542Z,57.80
2022-09-15T11:13:36.189Z,58.40
2022-09-15T11:15:14.637Z,59.30
2022-09-15T11:16:46.367Z,58.70
2022-09-15T11:17:59.984Z,59.60
2022-09-15T11:19:17.936Z,57.70
2022-09-15T11:20:43.818Z,58.10
2022-09-15T11:21:57.999Z,59.00
2022-09-15T11:23:19.303Z,59.00
2022-09-15T11:24:48.194Z,60.20
2022-09-15T11:25:56.935Z,60.70
2022-09-15T11:27:24.428Z,60.40
2022-09-15T11:28:48.702Z,57.70
2022-09-15T11:29:50.700Z,59.80
2022-09-15T11:31:16.983Z,59.10
2022-09-15T11:32:27.966Z,57.90
2022-09-15T11:33:46.651Z,55.60
2022-09-15T11:35:02.623Z,56.40
2022-09-15T11:36:11.340Z,56.50
2022-09-15T11:37:24.996Z,55.80
2022-09-15T11:38:37.971Z,54.40
2022-09-15T11:39:48.760Z,55.60
2022-09-15T11:41:05.303Z,55.10
2022-09-15T11:42:13.621Z,55.50
2022-09-15T11:43:27.866Z,54.30
2022-09-15T11:44:39.223Z,54.30
2022-09-15T11:45:47.487Z,55.00
2022-09-15T11:47:13.677Z,56.20
2022-09-15T11:48:30.320Z,58.20
2022-09-15T11:49:39.305Z,56.60
2022-09-15T11:50:45.749Z,56.70
2022-09-15T11:51:54.562Z,56.90
2022-09-15T11:53:38.222Z,55.80
2022-09-15T11:54:51.907Z,55.70
2022-09-15T11:56:08.686Z,55.00
2022-09-15T11:57:26.820Z,54.00
2022-09-15T11:58:59.616Z,54.20
2022-09-15T12:00:10.413Z,54.40
2022-09-15T12:01:12.157Z,56.20
2022-09-15T12:02:25.973Z,56.10
2022-09-15T12:03:32.947Z,54.90
2022-09-15T12:05:16.351Z,54.80
2022-09-15T12:06:40.922Z,55.10
2022-09-15T12:07:53.068Z,55.40
2022-09-15T12:09:02.291Z,53.70
2022-09-15T12:10:15.337Z,53.80
2022-09-15T12:11:22.222Z,52.80
2022-09-15T12:12:28.129Z,52.00
2022-09-15T12:13:32.782Z,52.00
2022-09-15T12:14:42.183Z,52.70
2022-09-15T12:15:45.835Z,53.70
2022-09-15T12:16:48.356Z,54.20
2022-09-15T12:18:34.382Z,54.30
2022-09-15T12:19:39.652Z,54.10
2022-09-15T12:21:07.572Z,54.30
2022-09-15T12:22:12.406Z,53.50
2022-09-15T12:23:21.617Z,52.70
2022-09-15T12:24:34.899Z,51.80
2022-09-15T12:25:55.538Z,51.30
2022-09-15T12:27:01.053Z,51.90
2022-09-15T12:28:51.783Z,50.90
2022-09-15T12:29:58.635Z,52.20
2022-09-15T12:31:29.785Z,52.90
2022-09-15T12:32:34.943Z,53.40
2022-09-15T12:33:42.677Z,53.20
2022-09-15T12:35:20.076Z,52.80
2022-09-15T12:36:44.990Z,53.60
2022-09-15T12:37:53.460Z,53.50
2022-09-15T12:38:55.474Z,53.40
2022-09-15T12:39:58.289Z,53.90
2022-09-15T12:41:00.529Z,53.70
2022-09-15T12:42:23.220Z,54.10
2022-09-15T12:43:25.704Z,53.80
2022-09-15T12:44:44.534Z,52.80
2022-09-15T12:45:58.465Z,52.60
2022-09-15T12:47:03.256Z,53.00
2022-09-15T12:48:20.780Z,53.40
2022-09-15T12:49:35.167Z,55.10
2022-09-15T12:50:41.284Z,53.80
2022-09-15T12:51:49.890Z,54.50
2022-09-15T12:53:01.330Z,54.30
2022-09-15T12:54:05.576Z,54.80
2022-09-15T12:55:19.090Z,54.10
2022-09-15T12:56:29.844Z,54.80
2022-09-15T12:57:36.245Z,55.20
2022-09-15T12:58:47.763Z,55.70
2022-09-15T12:59:50.709Z,55.80
2022-09-15T13:01:18.830Z,56.00
2022-09-15T13:02:46.826Z,56.50
2022-09-15T13:03:49.422Z,56.80
2022-09-15T13:04:52.347Z,57.90
2022-09-15T13:06:14.126Z,58.00
2022-09-15T13:07:15.840Z,57.40
2022-09-15T13:08:29.542Z,55.60
2022-09-15T13:09:44.636Z,55.60
2022-09-15T13:11:03.790Z,55.70
2022-09-15T13:12:06.542Z,55.60
2022-09-15T13:13:23.171Z,55.90
2022-09-15T13:14:33.665Z,54.40
2022-09-15T13:15:41.546Z,55.40
2022-09-15T13:17:06.617Z,55.60
2022-09-15T13:18:10.149Z,55.50
2022-09-15T13:19:41.371Z,55.90
2022-09-15T13:20:54.695Z,56.00
2022-09-15T13:22:01.839Z,57.20
2022-09-15T13:23:09.048Z,57.20
2022-09-15T13:24:32.371Z,57.20
2022-09-15T13:25:36.256Z,57.80
2022-09-15T13:26:38.934Z,58.10
2022-09-15T13:27:53.533Z,58.20
2022-09-15T13:28:58.529Z,58.10
2022-09-15T13:30:24.964Z,57.90
2022-09-15T13:31:39.477Z,59.10
2022-09-15T13:32:59.315Z,58.70
2022-09-15T13:35:05.767Z,59.70
2022-09-15T13:38:35.951Z,61.30
2022-09-15T13:40:27.049Z,61.90
2022-09-15T13:41:41.591Z,62.30
2022-09-15T13:42:52.686Z,62.80
2022-09-15T13:44:18.053Z,63.70
2022-09-15T13:45:32.466Z,64.80
2022-09-15T13:47:11.973Z,64.80
2022-09-15T13:48:42.796Z,63.80
2022-09-15T13:50:23.316Z,63.80
2022-09-15T13:51:32.894Z,63.80
2022-09-15T13:53:12.716Z,64.60
2022-09-15T13:54:19.317Z,64.30
2022-09-15T13:55:28.099Z,64.90
2022-09-15T13:56:38.454Z,64.20
2022-09-15T13:59:13.436Z,64.60
2022-09-15T14:00:40.549Z,64.70
2022-09-15T14:01:42.979Z,64.70
2022-09-15T14:02:50.654Z,65.20
2022-09-15T14:03:54.872Z,65.80
2022-09-15T14:04:56.686Z,65.30
2022-09-15T14:05:58.788Z,64.60
2022-09-15T14:07:01.987Z,65.00
2022-09-15T14:08:09.038Z,65.40
2022-09-15T14:09:25.792Z,64.70
2022-09-15T14:10:33.820Z,64.70
2022-09-15T14:11:37.725Z,64.60
2022-09-15T14:12:39.564Z,64.80
2022-09-15T14:13:49.271Z,64.70
2022-09-15T14:14:54.081Z,65.70
2022-09-15T14:16:09.238Z,64.90
2022-09-15T14:17:26.017Z,64.40
2022-09-15T14:18:29.070Z,65.00
2022-09-15T14:19:34.986Z,64.40
2022-09-15T14:20:36.860Z,65.10
2022-09-15T14:21:49.021Z,65.70
2022-09-15T14:22:51.495Z,65.60
2022-09-15T14:23:55.506Z,65.10
2022-09-15T14:24:59.060Z,65.90
2022-09-15T14:26:02.300Z,65.70
2022-09-15T14:27:09.813Z,66.20
2022-09-15T14:28:19.398Z,66.20
2022-09-15T14:29:25.064Z,65.90
2022-09-15T14:30:32.063Z,65.60
2022-09-15T14:31:43.435Z,65.70
2022-09-15T14:32:52.057Z,65.50
2022-09-15T14:33:54.177Z,65.20
2022-09-15T14:34:59.856Z,65.20
2022-09-15T14:36:02.864Z,64.90
2022-09-15T14:37:07.654Z,64.10
2022-09-15T14:38:23.690Z,64.30
2022-09-15T14:39:26.941Z,63.60
2022-09-15T14:40:39.542Z,63.50
2022-09-15T14:41:42.141Z,62.10
2022-09-15T14:42:44.647Z,61.70